Time;durP1;ratioP1;P1;durP2;ratioP2;P2;SDS_P1;SDS_P2;PMS_P1;PMS_P2;Temp;Humidity;BMP_temperature;BMP_pressure;BME280_temperature;BME280_humidity;BME280_pressure;Samples;Min_cycle;Max_cycle;Signal;HPM_P1;HPM_P2
2021/08/08 00:00:59;;;;;;;4.50;1.10;;;15.30;94.40;;;;;;6245753;23;20000;-71
2021/08/08 00:03:28;;;;;;;2.58;1.05;;;15.30;94.60;;;;;;6248099;23;20000;-72
2021/08/08 00:05:54;;;;;;;3.42;1.02;;;15.10;94.90;;;;;;6247762;23;20026;-71
2021/08/08 00:08:21;;;;;;;3.72;1.25;;;15.10;95.10;;;;;;6246511;23;20031;-71
2021/08/08 00:10:48;;;;;;;2.25;1.10;;;15.20;94.90;;;;;;6248801;23;20062;-71
2021/08/08 00:13:15;;;;;;;2.08;1.10;;;15.20;94.90;;;;;;6248893;23;20075;-71
2021/08/08 00:15:41;;;;;;;5.60;1.10;;;15.10;95.10;;;;;;6246793;23;20004;-71
2021/08/08 00:18:07;;;;;;;1.98;1.10;;;14.90;95.50;;;;;;6249107;23;20000;-71
2021/08/08 00:20:33;;;;;;;4.63;1.17;;;14.90;95.60;;;;;;6249558;23;20480;-71
2021/08/08 00:22:59;;;;;;;4.03;1.00;;;14.80;95.80;;;;;;6249294;23;20418;-71
2021/08/08 00:25:25;;;;;;;3.88;1.10;;;14.80;95.80;;;;;;6249387;23;20000;-70
2021/08/08 00:27:51;;;;;;;3.35;1.23;;;14.80;96.00;;;;;;6248603;23;20012;-71
2021/08/08 00:30:16;;;;;;;3.67;1.20;;;14.70;96.30;;;;;;6247868;23;19997;-71
2021/08/08 00:32:42;;;;;;;3.53;1.05;;;14.60;96.30;;;;;;6249165;23;20007;-73
2021/08/08 00:35:09;;;;;;;4.75;1.10;;;14.50;96.50;;;;;;6248755;23;20008;-71
2021/08/08 00:37:35;;;;;;;6.53;1.33;;;14.40;96.80;;;;;;6249635;23;20040;-71
2021/08/08 00:40:01;;;;;;;1.95;1.00;;;14.30;97.00;;;;;;6249298;23;20003;-71
2021/08/08 00:42:26;;;;;;;2.65;1.00;;;14.30;97.10;;;;;;6248936;23;20269;-71
2021/08/08 00:44:52;;;;;;;2.58;1.05;;;14.30;97.20;;;;;;6215293;23;20013;-71
2021/08/08 00:47:18;;;;;;;3.70;1.20;;;14.20;97.30;;;;;;6218888;23;20084;-71
2021/08/08 00:49:43;;;;;;;2.95;1.20;;;14.20;97.40;;;;;;6217669;23;20011;-72
2021/08/08 00:52:09;;;;;;;5.75;1.48;;;14.10;97.50;;;;;;6218929;23;20000;-72
2021/08/08 00:54:35;;;;;;;3.13;1.27;;;14.10;97.60;;;;;;6218762;23;20028;-71
2021/08/08 00:57:00;;;;;;;2.83;1.23;;;14.00;97.60;;;;;;6218586;23;20345;-71
2021/08/08 00:59:26;;;;;;;4.05;1.50;;;13.90;97.90;;;;;;6217204;23;20001;-72
2021/08/08 01:01:54;;;;;;;6.32;1.88;;;13.80;97.90;;;;;;6219038;23;20011;-71
2021/08/08 01:04:27;;;;;;;4.47;1.75;;;13.60;98.00;;;;;;6218361;23;20000;-71
2021/08/08 01:06:55;;;;;;;4.05;1.50;;;13.50;98.00;;;;;;6217574;23;20012;-72
2021/08/08 01:09:24;;;;;;;10.73;2.03;;;13.40;98.00;;;;;;6218906;23;20327;-72
2021/08/08 01:11:50;;;;;;;5.43;1.70;;;13.30;98.00;;;;;;6219002;23;20332;-72
2021/08/08 01:14:18;;;;;;;2.88;1.30;;;13.30;98.00;;;;;;6216169;23;20016;-71
2021/08/08 01:16:46;;;;;;;8.07;1.42;;;13.40;98.00;;;;;;6216183;23;20006;-72
2021/08/08 01:19:16;;;;;;;2.53;1.23;;;13.40;98.00;;;;;;6217220;23;20036;-72
2021/08/08 01:21:45;;;;;;;3.35;1.42;;;13.30;98.00;;;;;;6218696;23;20076;-72
2021/08/08 01:24:14;;;;;;;4.18;1.23;;;13.20;98.00;;;;;;6215812;23;20294;-71
2021/08/08 01:26:42;;;;;;;4.68;1.10;;;13.20;98.00;;;;;;6217528;23;20389;-71
2021/08/08 01:29:10;;;;;;;5.20;1.73;;;13.20;98.00;;;;;;6217920;23;20008;-71
2021/08/08 01:31:36;;;;;;;3.20;1.17;;;13.20;98.00;;;;;;6217151;23;19997;-71
2021/08/08 01:34:01;;;;;;;4.03;1.20;;;13.10;98.00;;;;;;6218457;23;20084;-71
2021/08/08 01:36:27;;;;;;;3.85;1.70;;;13.00;98.00;;;;;;6218439;23;20004;-71
2021/08/08 01:39:03;;;;;;;3.63;1.35;;;12.90;98.00;;;;;;6218591;23;20346;-71
2021/08/08 01:41:38;;;;;;;2.20;1.08;;;12.80;98.00;;;;;;6218374;23;19993;-73
2021/08/08 01:44:03;;;;;;;;;;;12.80;98.00;;;;;;6222152;23;20023;-71
2021/08/08 01:46:32;;;;;;;5.80;1.52;;;12.70;98.00;;;;;;6220928;23;19899;-71
2021/08/08 01:48:59;;;;;;;2.90;1.30;;;12.70;98.00;;;;;;6248620;23;20000;-71
2021/08/08 01:51:26;;;;;;;2.72;1.30;;;12.70;98.00;;;;;;6222196;23;20089;-71
2021/08/08 01:53:52;;;;;;;3.00;1.50;;;12.80;98.00;;;;;;6248897;23;20004;-71
2021/08/08 01:56:18;;;;;;;3.35;1.42;;;12.90;98.00;;;;;;6248800;23;20079;-71
2021/08/08 01:58:44;;;;;;;4.15;1.40;;;13.00;98.00;;;;;;6248964;23;20007;-71
2021/08/08 02:01:13;;;;;;;5.50;1.30;;;13.10;98.00;;;;;;6247203;23;20302;-71
2021/08/08 02:03:39;;;;;;;3.78;1.40;;;13.10;98.00;;;;;;6249000;23;20006;-71
2021/08/08 02:06:09;;;;;;;3.25;1.30;;;13.00;98.00;;;;;;6222151;23;20096;-71
2021/08/08 02:08:38;;;;;;;8.65;1.60;;;12.90;98.00;;;;;;6248694;23;20012;-71
2021/08/08 02:11:07;;;;;;;6.88;1.60;;;12.80;98.00;;;;;;6248767;23;20385;-71
2021/08/08 02:13:33;;;;;;;3.63;1.45;;;12.70;98.00;;;;;;6248345;23;20000;-71
2021/08/08 02:15:58;;;;;;;4.45;1.55;;;12.70;98.00;;;;;;6247121;23;20007;-71
2021/08/08 02:18:24;;;;;;;7.97;1.60;;;12.70;98.00;;;;;;6248591;23;20435;-70
2021/08/08 02:20:50;;;;;;;2.90;1.30;;;12.60;98.00;;;;;;6248774;23;20004;-70
2021/08/08 02:23:15;;;;;;;4.53;1.20;;;12.60;98.00;;;;;;6249107;23;19996;-70
2021/08/08 02:25:41;;;;;;;4.10;1.38;;;12.50;98.00;;;;;;6248569;23;20040;-72
2021/08/08 02:28:07;;;;;;;4.07;1.40;;;12.50;98.00;;;;;;6248482;23;20032;-72
2021/08/08 02:30:34;;;;;;;4.57;1.33;;;12.40;98.00;;;;;;6247588;23;20115;-72
2021/08/08 02:33:03;;;;;;;4.93;1.67;;;12.40;98.00;;;;;;6250122;23;20004;-71
2021/08/08 02:35:28;;;;;;;4.47;1.40;;;12.30;98.00;;;;;;6250503;23;20071;-71
2021/08/08 02:37:54;;;;;;;2.67;1.05;;;12.20;98.00;;;;;;6250631;23;20309;-71
2021/08/08 02:40:20;;;;;;;3.85;1.40;;;12.20;98.00;;;;;;6250391;23;20054;-72
2021/08/08 02:42:46;;;;;;;5.30;1.23;;;12.30;98.00;;;;;;6250284;23;20099;-71
2021/08/08 02:45:11;;;;;;;5.53;1.35;;;12.30;98.00;;;;;;6248265;23;20413;-72
2021/08/08 02:47:37;;;;;;;2.35;1.25;;;12.40;98.00;;;;;;6250252;23;20015;-71
2021/08/08 02:50:05;;;;;;;3.63;1.40;;;12.40;98.00;;;;;;6250265;23;19996;-71
2021/08/08 02:52:31;;;;;;;2.63;1.40;;;12.40;98.00;;;;;;6250435;23;20262;-71
2021/08/08 02:54:56;;;;;;;4.63;1.40;;;12.40;98.00;;;;;;6250915;23;20003;-71
2021/08/08 02:57:22;;;;;;;3.78;1.27;;;12.40;98.00;;;;;;6250116;23;20015;-71
2021/08/08 02:59:48;;;;;;;5.65;1.63;;;12.40;98.00;;;;;;6249239;23;20411;-71
2021/08/08 03:02:13;;;;;;;4.68;1.33;;;12.30;98.00;;;;;;6250094;23;20262;-71
2021/08/08 03:04:39;;;;;;;4.88;1.55;;;12.30;98.00;;;;;;6223312;23;20000;-71
2021/08/08 03:07:04;;;;;;;3.85;1.35;;;12.40;98.00;;;;;;6250365;23;20337;-71
2021/08/08 03:09:31;;;;;;;3.55;1.30;;;12.40;98.00;;;;;;6249823;23;20366;-71
2021/08/08 03:11:57;;;;;;;2.22;1.10;;;12.40;98.00;;;;;;6250407;23;20027;-71
2021/08/08 03:14:23;;;;;;;2.58;1.38;;;12.60;98.00;;;;;;6248458;23;20413;-71
2021/08/08 03:16:49;;;;;;;2.75;1.20;;;12.70;98.00;;;;;;6249999;23;20008;-71
2021/08/08 03:19:15;;;;;;;1.75;1.00;;;12.70;98.00;;;;;;6249795;23;20003;-71
2021/08/08 03:21:41;;;;;;;3.95;1.35;;;12.80;98.00;;;;;;6250165;23;20003;-71
2021/08/08 03:24:07;;;;;;;2.97;1.27;;;12.70;98.00;;;;;;6250418;23;20004;-72
2021/08/08 03:26:35;;;;;;;3.08;1.10;;;12.70;98.00;;;;;;6250196;23;20062;-71
2021/08/08 03:29:01;;;;;;;3.17;1.05;;;12.80;98.00;;;;;;6249970;23;20011;-71
2021/08/08 03:31:27;;;;;;;2.47;0.95;;;12.80;98.00;;;;;;6248733;23;20365;-71
2021/08/08 03:33:54;;;;;;;3.85;1.20;;;12.70;98.00;;;;;;6249623;23;20071;-71
2021/08/08 03:36:21;;;;;;;5.93;1.10;;;12.60;98.00;;;;;;6249439;23;20338;-71
2021/08/08 03:38:48;;;;;;;2.35;1.20;;;12.50;98.00;;;;;;6249984;23;20022;-71
2021/08/08 03:41:14;;;;;;;2.15;1.00;;;12.40;98.00;;;;;;6249970;23;20006;-71
2021/08/08 03:43:39;;;;;;;2.58;1.10;;;12.30;98.00;;;;;;6222798;23;20365;-71
2021/08/08 03:46:05;;;;;;;5.45;0.98;;;12.30;98.00;;;;;;6248024;23;20016;-72
2021/08/08 03:48:31;;;;;;;2.85;1.45;;;12.30;98.00;;;;;;6249864;23;20008;-71
2021/08/08 03:50:56;;;;;;;3.75;1.00;;;12.40;98.00;;;;;;6223293;23;20008;-72
2021/08/08 03:53:22;;;;;;;2.03;0.98;;;12.30;98.00;;;;;;6249682;23;20366;-71
2021/08/08 03:55:48;;;;;;;5.53;1.20;;;12.20;98.00;;;;;;6249840;23;20008;-71
2021/08/08 03:58:13;;;;;;;1.55;0.90;;;12.10;98.00;;;;;;6249775;23;20000;-71
2021/08/08 04:00:39;;;;;;;3.58;1.20;;;12.10;98.00;;;;;;6247897;23;20261;-71
2021/08/08 04:03:05;;;;;;;2.65;1.10;;;12.00;98.00;;;;;;6249122;23;20007;-71
2021/08/08 04:05:31;;;;;;;3.15;1.30;;;11.90;98.00;;;;;;6249746;23;20003;-71
2021/08/08 04:07:57;;;;;;;4.18;1.30;;;11.80;98.00;;;;;;6249678;23;19996;-71
2021/08/08 04:10:22;;;;;;;3.50;1.20;;;11.70;98.00;;;;;;6249566;23;20024;-71
2021/08/08 04:12:48;;;;;;;4.75;1.30;;;11.80;98.00;;;;;;6249500;23;19996;-71
2021/08/08 04:15:14;;;;;;;3.45;1.42;;;11.90;98.00;;;;;;6221389;23;20027;-71
2021/08/08 04:17:39;;;;;;;3.50;1.08;;;12.00;98.00;;;;;;6249429;23;20008;-71
2021/08/08 04:20:05;;;;;;;3.85;1.10;;;12.10;98.00;;;;;;6249573;23;20000;-71
2021/08/08 04:22:31;;;;;;;2.05;0.93;;;12.20;98.00;;;;;;6249489;23;20000;-71
2021/08/08 04:24:56;;;;;;;2.63;1.20;;;12.20;98.00;;;;;;6249532;23;20086;-72
2021/08/08 04:27:22;;;;;;;3.25;1.00;;;12.20;98.00;;;;;;6249352;23;20239;-71
2021/08/08 04:29:48;;;;;;;2.55;1.17;;;12.20;98.00;;;;;;6248006;23;20357;-71
2021/08/08 04:32:14;;;;;;;3.72;1.20;;;12.20;98.00;;;;;;6249101;23;20004;-71
2021/08/08 04:34:40;;;;;;;2.60;1.00;;;12.30;98.00;;;;;;6249095;23;20023;-72
2021/08/08 04:37:05;;;;;;;1.85;0.98;;;12.30;98.00;;;;;;6249408;23;20030;-71
2021/08/08 04:39:31;;;;;;;2.33;1.13;;;12.40;98.00;;;;;;6249315;23;20000;-70
2021/08/08 04:41:57;;;;;;;6.82;2.08;;;12.30;98.00;;;;;;6249556;23;20010;-71
2021/08/08 04:44:23;;;;;;;3.22;1.10;;;12.30;98.00;;;;;;6247576;23;20015;-71
2021/08/08 04:46:48;;;;;;;2.95;1.50;;;12.20;98.00;;;;;;6249013;23;20004;-71
2021/08/08 04:49:14;;;;;;;2.58;1.02;;;12.20;98.00;;;;;;6249253;23;20027;-71
2021/08/08 04:51:41;;;;;;;4.25;1.00;;;12.20;98.00;;;;;;6249750;23;20310;-71
2021/08/08 04:54:08;;;;;;;6.38;1.10;;;12.20;98.00;;;;;;6222497;23;20000;-71
2021/08/08 04:56:34;;;;;;;3.42;1.15;;;12.20;98.00;;;;;;6249251;23;20246;-71
2021/08/08 04:59:00;;;;;;;3.42;0.90;;;12.10;98.00;;;;;;6249161;23;20004;-71
2021/08/08 05:01:26;;;;;;;7.30;1.00;;;12.10;98.00;;;;;;6247740;23;20071;-71
2021/08/08 05:03:55;;;;;;;2.65;1.00;;;12.20;98.00;;;;;;6248647;23;19996;-70
2021/08/08 05:06:20;;;;;;;2.78;1.08;;;12.20;98.00;;;;;;6249234;23;20289;-70
2021/08/08 05:08:46;;;;;;;2.60;0.90;;;12.20;98.00;;;;;;6222550;23;20008;-70
2021/08/08 05:11:18;;;;;;;1.80;0.85;;;12.60;98.00;;;;;;6249167;23;20101;-69
2021/08/08 05:13:45;;;;;;;1.95;0.88;;;12.80;98.00;;;;;;6249186;23;20008;-70
2021/08/08 05:16:13;;;;;;;3.85;0.82;;;12.90;98.00;;;;;;6247268;23;20012;-70
2021/08/08 05:18:39;;;;;;;2.35;0.80;;;12.90;98.00;;;;;;6247754;23;20008;-70
2021/08/08 05:21:04;;;;;;;1.80;0.70;;;12.90;98.00;;;;;;6249107;23;20031;-71
2021/08/08 05:23:30;;;;;;;3.80;1.38;;;13.00;98.00;;;;;;6249004;23;20007;-71
2021/08/08 05:25:59;;;;;;;2.80;0.90;;;13.10;98.00;;;;;;6249398;23;20266;-71
2021/08/08 05:28:25;;;;;;;2.72;0.90;;;13.20;98.00;;;;;;6248849;23;20004;-71
2021/08/08 05:30:51;;;;;;;2.60;0.90;;;13.20;98.00;;;;;;6247651;23;20121;-71
2021/08/08 05:33:17;;;;;;;1.23;0.73;;;13.30;98.00;;;;;;6248269;23;20317;-72
2021/08/08 05:35:45;;;;;;;3.05;0.98;;;13.30;98.00;;;;;;6248780;23;20054;-71
2021/08/08 05:38:11;;;;;;;2.92;1.00;;;13.30;98.00;;;;;;6248615;23;19996;-72
2021/08/08 05:40:37;;;;;;;1.70;0.82;;;13.20;98.00;;;;;;6248687;23;20000;-71
2021/08/08 05:43:02;;;;;;;1.80;0.88;;;13.20;98.00;;;;;;6222110;23;20028;-71
2021/08/08 05:45:28;;;;;;;2.25;0.90;;;13.30;98.00;;;;;;6247563;23;20044;-71
2021/08/08 05:47:55;;;;;;;1.98;0.68;;;13.30;98.00;;;;;;6248832;23;20000;-70
2021/08/08 05:50:21;;;;;;;2.17;1.00;;;13.40;98.00;;;;;;6249200;23;20261;-71
2021/08/08 05:52:48;;;;;;;4.18;1.00;;;13.50;98.00;;;;;;6248919;23;20083;-71
2021/08/08 05:55:15;;;;;;;1.58;0.90;;;13.60;97.90;;;;;;6249273;23;20365;-71
2021/08/08 05:57:40;;;;;;;2.13;0.90;;;13.70;97.80;;;;;;6248697;23;20019;-71
2021/08/08 06:00:07;;;;;;;3.60;0.90;;;13.80;97.90;;;;;;6247483;23;20358;-72
2021/08/08 06:02:33;;;;;;;4.22;0.95;;;13.90;97.90;;;;;;6248846;23;20068;-71
2021/08/08 06:05:02;;;;;;;5.45;0.93;;;14.00;97.60;;;;;;6249061;23;20046;-71
2021/08/08 06:07:28;;;;;;;2.20;1.00;;;14.00;97.50;;;;;;6250920;23;20004;-71
2021/08/08 06:09:54;;;;;;;2.25;1.05;;;14.10;97.40;;;;;;6250808;23;20035;-69
2021/08/08 06:12:20;;;;;;;4.72;1.13;;;14.20;96.90;;;;;;6250587;23;20000;-70
2021/08/08 06:14:45;;;;;;;2.58;0.82;;;14.40;95.90;;;;;;6249639;23;20062;-71
2021/08/08 06:17:11;;;;;;;4.38;1.20;;;14.50;95.90;;;;;;6250738;23;20007;-73
2021/08/08 06:19:37;;;;;;;2.47;0.98;;;14.60;95.70;;;;;;6250528;23;19996;-72
2021/08/08 06:22:03;;;;;;;3.22;0.93;;;14.70;95.60;;;;;;6250682;23;20030;-71
2021/08/08 06:24:29;;;;;;;2.88;1.00;;;14.80;95.50;;;;;;6223917;23;20235;-71
2021/08/08 06:26:55;;;;;;;1.30;0.80;;;14.90;95.50;;;;;;6250278;23;20012;-71
2021/08/08 06:29:20;;;;;;;2.25;0.90;;;14.90;95.60;;;;;;6249105;23;20266;-71
2021/08/08 06:31:46;;;;;;;1.85;0.80;;;15.00;95.50;;;;;;6250848;23;20004;-71
2021/08/08 06:34:12;;;;;;;3.97;1.00;;;15.10;95.10;;;;;;6250118;23;20004;-71
2021/08/08 06:36:37;;;;;;;4.30;0.90;;;15.20;94.40;;;;;;6250361;23;20011;-71
2021/08/08 06:39:05;;;;;;;3.45;1.17;;;15.30;93.90;;;;;;6249985;23;20024;-70
2021/08/08 06:41:31;;;;;;;2.97;0.80;;;15.40;93.80;;;;;;6250660;23;20302;-71
2021/08/08 06:43:57;;;;;;;3.15;0.80;;;15.50;93.40;;;;;;6250333;23;20269;-71
2021/08/08 06:46:23;;;;;;;3.08;0.85;;;15.60;92.70;;;;;;6249234;23;20046;-71
2021/08/08 06:48:48;;;;;;;2.47;0.90;;;15.60;92.70;;;;;;6250267;23;20007;-71
2021/08/08 06:51:14;;;;;;;1.95;0.88;;;15.80;92.70;;;;;;6250589;23;20011;-71
2021/08/08 06:53:40;;;;;;;3.45;1.00;;;15.80;91.70;;;;;;6250322;23;20015;-71
2021/08/08 06:56:05;;;;;;;4.72;0.95;;;15.90;91.70;;;;;;6250078;23;20004;-71
2021/08/08 06:58:31;;;;;;;2.55;0.80;;;15.90;92.10;;;;;;6250381;23;20008;-71
2021/08/08 07:00:57;;;;;;;2.92;0.90;;;16.00;92.00;;;;;;6248746;23;20004;-71
2021/08/08 07:03:25;;;;;;;3.85;1.10;;;15.90;90.90;;;;;;6250491;23;20305;-72
2021/08/08 07:05:53;;;;;;;5.60;1.20;;;16.10;90.50;;;;;;6250328;23;20088;-71
2021/08/08 07:08:19;;;;;;;4.10;1.10;;;16.20;90.20;;;;;;6250325;23;20000;-71
2021/08/08 07:10:45;;;;;;;2.78;1.05;;;16.20;90.00;;;;;;6250132;23;20011;-71
2021/08/08 07:13:10;;;;;;;3.70;1.17;;;16.40;89.70;;;;;;6250243;23;20373;-70
2021/08/08 07:15:38;;;;;;;2.08;0.80;;;16.40;89.50;;;;;;6248835;23;20000;-71
2021/08/08 07:18:04;;;;;;;2.40;0.95;;;16.50;90.30;;;;;;6248505;23;20373;-71
2021/08/08 07:20:33;;;;;;;3.72;1.10;;;16.70;88.20;;;;;;6249810;23;20027;-73
2021/08/08 07:22:58;;;;;;;3.70;1.10;;;16.70;89.40;;;;;;6250013;23;20008;-71
2021/08/08 07:25:25;;;;;;;3.60;1.02;;;16.70;89.70;;;;;;6223212;23;20000;-75
2021/08/08 07:27:50;;;;;;;5.25;0.90;;;16.80;89.00;;;;;;6250140;23;20004;-71
2021/08/08 07:30:16;;;;;;;3.33;1.00;;;16.90;87.80;;;;;;6248462;23;20101;-71
2021/08/08 07:32:42;;;;;;;2.50;1.00;;;16.90;87.00;;;;;;6250196;23;20071;-71
2021/08/08 07:35:08;;;;;;;2.67;0.90;;;16.70;87.80;;;;;;6250288;23;20000;-71
2021/08/08 07:37:33;;;;;;;3.03;1.15;;;16.80;88.10;;;;;;6250200;23;20007;-71
2021/08/08 07:39:59;;;;;;;2.15;0.80;;;17.00;87.90;;;;;;6249832;23;20000;-71
2021/08/08 07:42:25;;;;;;;2.45;1.10;;;17.00;86.50;;;;;;6249841;23;20243;-71
2021/08/08 07:44:50;;;;;;;2.40;0.90;;;17.10;86.20;;;;;;6248229;23;20016;-71
2021/08/08 07:47:16;;;;;;;3.25;1.00;;;17.30;86.00;;;;;;6223369;23;20070;-71
2021/08/08 07:49:43;;;;;;;3.47;1.17;;;17.90;85.80;;;;;;6249855;23;20038;-71
2021/08/08 07:52:09;;;;;;;2.35;0.90;;;18.50;82.60;;;;;;6249813;23;20075;-71
2021/08/08 07:54:35;;;;;;;3.85;1.15;;;18.80;81.70;;;;;;6223283;23;20083;-71
2021/08/08 07:57:00;;;;;;;4.43;1.02;;;19.70;80.90;;;;;;6249631;23;20050;-71
2021/08/08 07:59:26;;;;;;;3.47;1.00;;;20.30;77.00;;;;;;6248453;23;20004;-71
2021/08/08 08:01:52;;;;;;;2.75;0.90;;;20.10;76.10;;;;;;6249544;23;20079;-71
2021/08/08 08:04:19;;;;;;;3.88;1.20;;;19.60;77.10;;;;;;6249779;23;20000;-70
2021/08/08 08:06:45;;;;;;;2.58;0.88;;;19.80;78.10;;;;;;6249659;23;20000;-70
2021/08/08 08:09:14;;;;;;;2.38;0.98;;;20.90;75.10;;;;;;6249655;23;20023;-70
2021/08/08 08:11:41;;;;;;;5.63;1.02;;;21.20;73.60;;;;;;6249983;23;20008;-70
2021/08/08 08:14:07;;;;;;;2.22;1.00;;;20.90;75.00;;;;;;6249417;23;20000;-71
2021/08/08 08:16:32;;;;;;;2.85;1.05;;;20.10;75.80;;;;;;6248521;23;20103;-70
2021/08/08 08:18:58;;;;;;;4.55;1.10;;;19.60;77.50;;;;;;6248557;23;20007;-71
2021/08/08 08:21:23;;;;;;;3.60;1.10;;;19.80;77.90;;;;;;6248960;23;19996;-71
2021/08/08 08:23:49;;;;;;;5.97;1.20;;;20.20;76.90;;;;;;6249707;23;20006;-71
2021/08/08 08:26:15;;;;;;;2.50;0.93;;;20.10;76.20;;;;;;6249574;23;20010;-71
2021/08/08 08:28:40;;;;;;;4.55;1.10;;;19.90;76.60;;;;;;6249177;23;20008;-72
2021/08/08 08:31:07;;;;;;;2.10;0.90;;;19.50;76.40;;;;;;6248147;23;20054;-71
2021/08/08 08:33:33;;;;;;;4.28;1.23;;;19.10;79.80;;;;;;6249456;23;20007;-71
2021/08/08 08:35:58;;;;;;;2.80;0.90;;;18.60;79.20;;;;;;6249092;23;20008;-71
2021/08/08 08:38:24;;;;;;;4.20;0.95;;;18.40;79.60;;;;;;6248848;23;20142;-71
2021/08/08 08:40:59;;;;;;;2.10;0.95;;;18.10;80.60;;;;;;6249635;23;20302;-71
2021/08/08 08:43:27;;;;;;;4.05;1.00;;;18.00;81.90;;;;;;6249066;23;20050;-71
2021/08/08 08:45:54;;;;;;;2.10;0.98;;;17.90;82.20;;;;;;6247515;23;20027;-71
2021/08/08 08:48:20;;;;;;;2.38;1.02;;;18.10;82.00;;;;;;6249384;23;20390;-71
2021/08/08 08:50:53;;;;;;;6.82;1.58;;;18.20;81.80;;;;;;6222183;23;20087;-71
2021/08/08 08:53:20;;;;;;;2.78;1.30;;;18.30;82.20;;;;;;6249672;23;20450;-71
2021/08/08 08:55:50;;;;;;;20.13;1.30;;;18.30;82.40;;;;;;6222775;23;20055;-71
2021/08/08 08:58:16;;;;;;;5.53;1.05;;;18.40;82.20;;;;;;6249378;23;20007;-72
2021/08/08 09:00:42;;;;;;;3.08;1.40;;;18.50;82.20;;;;;;6221029;23;20007;-71
2021/08/08 09:03:08;;;;;;;3.10;1.42;;;18.70;82.80;;;;;;6248877;23;20000;-71
2021/08/08 09:05:33;;;;;;;1.85;0.90;;;19.40;79.60;;;;;;6249143;23;20079;-71
2021/08/08 09:07:59;;;;;;;6.90;1.30;;;19.30;79.10;;;;;;6248647;23;19997;-71
2021/08/08 09:10:26;;;;;;;6.72;1.00;;;18.90;80.60;;;;;;6249136;23;20004;-71
2021/08/08 09:13:02;;;;;;;4.00;1.27;;;18.40;82.30;;;;;;6249395;23;19997;-71
2021/08/08 09:15:36;;;;;;;3.38;1.10;;;18.00;82.90;;;;;;6220915;23;20000;-71
2021/08/08 09:18:13;;;;;;;3.75;1.25;;;18.00;81.80;;;;;;6248462;23;20000;-71
2021/08/08 09:20:39;;;;;;;3.03;1.17;;;17.90;82.00;;;;;;6249086;23;19996;-71
2021/08/08 09:23:05;;;;;;;4.00;1.20;;;17.90;82.40;;;;;;6249197;23;20042;-71
2021/08/08 09:25:30;;;;;;;3.13;1.00;;;18.20;81.80;;;;;;6248724;23;20007;-71
2021/08/08 09:28:10;;;;;;;4.68;1.00;;;18.60;80.20;;;;;;6248320;23;20004;-71
2021/08/08 09:30:40;;;;;;;2.83;1.00;;;19.10;79.90;;;;;;6245882;23;20000;-71
2021/08/08 09:33:10;;;;;;;3.90;1.08;;;19.50;78.50;;;;;;6247269;23;20027;-71
2021/08/08 09:35:41;;;;;;;3.45;1.15;;;19.40;78.90;;;;;;6221266;23;20320;-72
2021/08/08 09:38:09;;;;;;;6.53;1.00;;;19.70;77.80;;;;;;6247345;23;20007;-72
2021/08/08 09:40:37;;;;;;;4.63;1.17;;;20.40;76.30;;;;;;6249199;23;20483;-72
2021/08/08 09:43:06;;;;;;;2.28;1.00;;;20.60;75.00;;;;;;6223286;23;20004;-71
2021/08/08 09:45:37;;;;;;;2.67;0.90;;;20.70;75.60;;;;;;6248912;23;20016;-72
2021/08/08 09:48:04;;;;;;;4.75;1.10;;;21.20;74.70;;;;;;6251149;23;20022;-72
2021/08/08 09:50:32;;;;;;;4.93;1.20;;;21.10;75.00;;;;;;6251191;23;20251;-71
2021/08/08 09:53:03;;;;;;;2.92;0.80;;;22.20;72.00;;;;;;6250838;23;20007;-71
2021/08/08 09:55:33;;;;;;;3.35;0.90;;;21.90;67.10;;;;;;6250620;23;20052;-71
2021/08/08 09:57:59;;;;;;;4.75;0.90;;;21.10;68.70;;;;;;6250901;23;20003;-70
2021/08/08 10:00:27;;;;;;;2.92;0.90;;;20.40;71.20;;;;;;6249505;23;19996;-71
2021/08/08 10:02:53;;;;;;;2.95;0.90;;;20.20;72.70;;;;;;6250586;23;20004;-71
2021/08/08 10:05:20;;;;;;;3.47;1.13;;;20.60;72.50;;;;;;6250319;23;20032;-71
2021/08/08 10:07:47;;;;;;;3.13;1.25;;;20.80;73.60;;;;;;6249130;23;20010;-71
2021/08/08 10:10:13;;;;;;;2.65;0.90;;;21.30;73.20;;;;;;6249962;23;20000;-71
2021/08/08 10:13:05;;;;;;;3.05;1.00;;;21.70;71.40;;;;;;6249976;23;20007;-71
2021/08/08 10:15:31;;;;;;;8.43;1.30;;;21.90;70.10;;;;;;6248688;23;20004;-71
2021/08/08 10:18:00;;;;;;;3.03;0.80;;;21.70;69.40;;;;;;6250294;23;20262;-71
2021/08/08 10:20:34;;;;;;;5.05;1.20;;;21.00;71.80;;;;;;6249921;23;20258;-71
2021/08/08 10:23:02;;;;;;;2.85;1.00;;;20.60;73.90;;;;;;6247033;23;20239;-71
2021/08/08 10:25:27;;;;;;;2.63;1.10;;;20.20;73.60;;;;;;6248851;23;20004;-71
2021/08/08 10:27:54;;;;;;;2.80;1.00;;;20.10;74.60;;;;;;6250091;23;20016;-71
2021/08/08 10:30:19;;;;;;;2.53;0.85;;;20.90;73.10;;;;;;6249079;23;20024;-71
2021/08/08 10:32:59;;;;;;;3.83;1.10;;;22.50;70.10;;;;;;6249701;23;20307;-70
2021/08/08 10:35:36;;;;;;;4.15;1.05;;;22.50;67.50;;;;;;6249932;23;19996;-71
2021/08/08 10:38:03;;;;;;;2.25;0.88;;;22.90;66.20;;;;;;6249925;23;20000;-71
2021/08/08 10:40:31;;;;;;;5.07;1.00;;;23.50;65.40;;;;;;6250187;23;20000;-71
2021/08/08 10:42:58;;;;;;;3.65;1.27;;;23.10;65.40;;;;;;6249998;23;20005;-71
2021/08/08 10:45:29;;;;;;;4.63;1.15;;;22.40;67.70;;;;;;6248640;23;20015;-71
2021/08/08 10:47:56;;;;;;;3.55;0.90;;;21.90;68.40;;;;;;6249532;23;20008;-71
2021/08/08 10:50:22;;;;;;;3.10;0.93;;;22.10;67.10;;;;;;6223522;23;20074;-71
2021/08/08 10:52:48;;;;;;;2.60;0.85;;;22.20;66.90;;;;;;6249747;23;20050;-71
2021/08/08 10:55:27;;;;;;;2.13;0.90;;;22.00;68.60;;;;;;6249233;23;20004;-71
2021/08/08 10:57:53;;;;;;;2.55;1.00;;;21.90;67.90;;;;;;6247895;23;20091;-71
2021/08/08 11:00:30;;;;;;;5.10;1.13;;;21.70;67.60;;;;;;6247470;23;20008;-71
2021/08/08 11:03:23;;;;;;;2.55;1.00;;;21.30;69.60;;;;;;6248839;23;20050;-70
2021/08/08 11:05:49;;;;;;;2.13;1.00;;;21.20;69.80;;;;;;6242674;23;20015;-71
2021/08/08 11:08:20;;;;;;;5.07;1.40;;;22.40;69.20;;;;;;6248796;23;20366;-71
2021/08/08 11:10:49;;;;;;;2.40;1.00;;;23.30;66.60;;;;;;6249104;23;20366;-73
2021/08/08 11:13:22;;;;;;;3.35;0.80;;;23.70;66.90;;;;;;6248378;23;20003;-72
2021/08/08 11:15:50;;;;;;;3.30;1.10;;;23.60;65.40;;;;;;6221728;23;20018;-71
2021/08/08 11:18:28;;;;;;;5.88;1.10;;;23.90;65.10;;;;;;6249945;23;20004;-70
2021/08/08 11:21:01;;;;;;;2.90;1.00;;;24.00;64.10;;;;;;6249380;23;20027;-71
2021/08/08 11:23:30;;;;;;;2.75;0.98;;;24.20;64.10;;;;;;6248149;23;20005;-71
2021/08/08 11:25:57;;;;;;;3.65;1.13;;;24.10;63.40;;;;;;6221906;23;20008;-71
2021/08/08 11:28:24;;;;;;;3.63;0.95;;;24.40;62.90;;;;;;6250155;23;20046;-71
2021/08/08 11:30:53;;;;;;;3.00;1.30;;;23.80;63.10;;;;;;6247426;23;19996;-71
2021/08/08 11:33:26;;;;;;;4.03;1.20;;;23.30;64.20;;;;;;6250266;23;20257;-72
2021/08/08 11:36:00;;;;;;;2.55;0.98;;;22.20;65.10;;;;;;6250307;23;20000;-71
2021/08/08 11:38:30;;;;;;;2.65;1.10;;;21.50;67.60;;;;;;6249869;23;19997;-71
2021/08/08 11:40:56;;;;;;;2.33;0.80;;;22.10;67.80;;;;;;6249993;23;20305;-71
2021/08/08 11:43:30;;;;;;;3.00;1.00;;;21.60;66.80;;;;;;6250089;23;20000;-71
2021/08/08 11:45:58;;;;;;;1.85;1.20;;;21.70;65.30;;;;;;6248407;23;20028;-71
2021/08/08 11:48:29;;;;;;;2.53;0.95;;;22.10;66.70;;;;;;6250091;23;20000;-71
2021/08/08 11:51:03;;;;;;;2.55;1.00;;;21.70;65.80;;;;;;6250074;23;20008;-71
2021/08/08 11:53:34;;;;;;;3.75;1.30;;;22.00;66.10;;;;;;6250004;23;20047;-71
2021/08/08 11:56:13;;;;;;;2.72;1.02;;;22.50;65.50;;;;;;6249832;23;20031;-71
2021/08/08 11:58:47;;;;;;;2.60;0.93;;;22.80;64.90;;;;;;6250303;23;20000;-71
2021/08/08 12:01:16;;;;;;;3.55;1.20;;;22.70;63.80;;;;;;6248804;23;20000;-71
2021/08/08 12:03:42;;;;;;;3.38;1.05;;;22.60;65.60;;;;;;6249713;23;20000;-71
2021/08/08 12:06:07;;;;;;;3.83;1.02;;;22.10;64.90;;;;;;6250009;23;20023;-71
2021/08/08 12:08:33;;;;;;;6.53;1.10;;;21.80;66.70;;;;;;6249709;23;20405;-71
2021/08/08 12:11:02;;;;;;;5.03;1.23;;;21.60;67.10;;;;;;6249718;23;20035;-71
2021/08/08 12:13:28;;;;;;;3.92;1.10;;;20.90;68.50;;;;;;6249866;23;20074;-71
2021/08/08 12:15:53;;;;;;;4.10;1.20;;;20.70;69.20;;;;;;6248221;23;20000;-71
2021/08/08 12:18:30;;;;;;;2.75;1.17;;;20.70;70.00;;;;;;6249976;23;20003;-72
2021/08/08 12:20:55;;;;;;;3.83;1.13;;;21.30;69.70;;;;;;6223133;23;20008;-71
2021/08/08 12:23:25;;;;;;;2.88;1.00;;;22.00;65.40;;;;;;6249804;23;19992;-71
2021/08/08 12:26:02;;;;;;;1.77;0.90;;;22.40;66.40;;;;;;6222994;23;20008;-71
2021/08/08 12:28:27;;;;;;;2.70;1.20;;;22.60;66.80;;;;;;6249687;23;20004;-71
2021/08/08 12:31:08;;;;;;;4.35;1.10;;;22.40;64.40;;;;;;6248257;23;20080;-71
2021/08/08 12:33:34;;;;;;;6.05;1.17;;;22.00;65.00;;;;;;6249750;23;20004;-71
2021/08/08 12:36:10;;;;;;;4.15;1.05;;;21.40;66.50;;;;;;5072958;28;20405;-70
2021/08/08 12:38:47;;;;;;;4.10;1.02;;;21.20;67.70;;;;;;5068448;28;20040;-71
2021/08/08 12:41:12;;;;;;;3.13;1.00;;;21.20;67.40;;;;;;5072009;28;20027;-71
2021/08/08 12:43:38;;;;;;;2.20;0.93;;;21.30;67.30;;;;;;5072996;28;20017;-71
2021/08/08 12:46:10;;;;;;;6.50;1.63;;;21.30;66.80;;;;;;5072023;28;20039;-70
2021/08/08 12:48:39;;;;;;;3.13;1.00;;;21.40;68.20;;;;;;5072848;28;20433;-70